sensor_id;sensor_type;location;lat;lon;timestamp;temperature;humidity
41220;DHT22;26951;47.338;9.196;2022-09-01T00:01:27;12.40;71.60
41220;DHT22;26951;47.338;9.196;2022-09-01T00:04:14;12.40;72.10
41220;DHT22;26951;47.338;9.196;2022-09-01T00:06:58;12.40;72.40
41220;DHT22;26951;47.338;9.196;2022-09-01T00:09:43;12.30;72.40
41220;DHT22;26951;47.338;9.196;2022-09-01T00:12:28;12.40;72.90
41220;DHT22;26951;47.338;9.196;2022-09-01T00:15:12;12.30;72.70
41220;DHT22;26951;47.338;9.196;2022-09-01T00:17:57;12.30;72.60
41220;DHT22;26951;47.338;9.196;2022-09-01T00:20:41;12.30;71.80
41220;DHT22;26951;47.338;9.196;2022-09-01T00:23:28;12.40;70.90
41220;DHT22;26951;47.338;9.196;2022-09-01T00:26:13;12.30;70.40
41220;DHT22;26951;47.338;9.196;2022-09-01T00:28:57;12.30;70.00
41220;DHT22;26951;47.338;9.196;2022-09-01T00:31:42;12.30;69.50
41220;DHT22;26951;47.338;9.196;2022-09-01T00:34:27;12.20;69.30
41220;DHT22;26951;47.338;9.196;2022-09-01T00:37:11;12.20;69.90
41220;DHT22;26951;47.338;9.196;2022-09-01T00:39:56;12.20;70.90
41220;DHT22;26951;47.338;9.196;2022-09-01T00:42:40;12.10;71.70
41220;DHT22;26951;47.338;9.196;2022-09-01T00:45:25;12.20;72.80
41220;DHT22;26951;47.338;9.196;2022-09-01T00:48:09;12.20;72.70
41220;DHT22;26951;47.338;9.196;2022-09-01T00:50:53;12.20;73.20
41220;DHT22;26951;47.338;9.196;2022-09-01T00:53:39;12.20;74.30
41220;DHT22;26951;47.338;9.196;2022-09-01T00:56:24;12.20;74.90
41220;DHT22;26951;47.338;9.196;2022-09-01T00:59:09;12.20;75.00
41220;DHT22;26951;47.338;9.196;2022-09-01T01:02:00;12.20;75.70
41220;DHT22;26951;47.338;9.196;2022-09-01T01:04:44;12.20;76.80
41220;DHT22;26951;47.338;9.196;2022-09-01T01:07:29;12.30;76.90
41220;DHT22;26951;47.338;9.196;2022-09-01T01:10:15;12.30;77.00
41220;DHT22;26951;47.338;9.196;2022-09-01T01:13:00;12.40;78.80
41220;DHT22;26951;47.338;9.196;2022-09-01T01:15:44;12.40;78.60
41220;DHT22;26951;47.338;9.196;2022-09-01T01:18:29;12.50;78.30
41220;DHT22;26951;47.338;9.196;2022-09-01T01:21:25;12.50;78.90
41220;DHT22;26951;47.338;9.196;2022-09-01T01:24:33;12.60;79.20
41220;DHT22;26951;47.338;9.196;2022-09-01T01:27:18;12.60;79.30
41220;DHT22;26951;47.338;9.196;2022-09-01T01:30:05;12.60;79.30
41220;DHT22;26951;47.338;9.196;2022-09-01T01:32:52;12.60;79.70
41220;DHT22;26951;47.338;9.196;2022-09-01T01:35:38;12.70;79.70
41220;DHT22;26951;47.338;9.196;2022-09-01T01:38:24;12.70;79.90
41220;DHT22;26951;47.338;9.196;2022-09-01T01:41:11;12.70;80.50
41220;DHT22;26951;47.338;9.196;2022-09-01T01:43:56;12.70;81.00
41220;DHT22;26951;47.338;9.196;2022-09-01T01:46:44;12.80;82.40
41220;DHT22;26951;47.338;9.196;2022-09-01T01:49:28;12.80;81.30
41220;DHT22;26951;47.338;9.196;2022-09-01T01:52:14;12.90;81.20
41220;DHT22;26951;47.338;9.196;2022-09-01T01:55:00;12.90;80.90
41220;DHT22;26951;47.338;9.196;2022-09-01T01:57:46;12.90;80.10
41220;DHT22;26951;47.338;9.196;2022-09-01T02:00:33;12.90;80.50
41220;DHT22;26951;47.338;9.196;2022-09-01T02:03:20;12.90;80.50
41220;DHT22;26951;47.338;9.196;2022-09-01T02:06:06;13.00;80.70
41220;DHT22;26951;47.338;9.196;2022-09-01T02:08:53;13.00;80.30
41220;DHT22;26951;47.338;9.196;2022-09-01T02:11:41;13.10;80.20
41220;DHT22;26951;47.338;9.196;2022-09-01T02:14:25;13.10;80.10
41220;DHT22;26951;47.338;9.196;2022-09-01T02:17:09;13.10;80.20
41220;DHT22;26951;47.338;9.196;2022-09-01T02:19:53;13.20;79.80
41220;DHT22;26951;47.338;9.196;2022-09-01T02:22:40;13.20;79.60
41220;DHT22;26951;47.338;9.196;2022-09-01T02:25:26;13.20;79.80
41220;DHT22;26951;47.338;9.196;2022-09-01T02:28:13;13.20;79.90
41220;DHT22;26951;47.338;9.196;2022-09-01T02:30:58;13.20;80.20
41220;DHT22;26951;47.338;9.196;2022-09-01T02:33:42;13.20;80.00
41220;DHT22;26951;47.338;9.196;2022-09-01T02:36:28;13.20;79.40
41220;DHT22;26951;47.338;9.196;2022-09-01T02:39:25;13.20;79.50
41220;DHT22;26951;47.338;9.196;2022-09-01T02:42:10;13.20;80.00
41220;DHT22;26951;47.338;9.196;2022-09-01T02:44:58;13.20;80.20
41220;DHT22;26951;47.338;9.196;2022-09-01T02:47:43;13.20;80.00
41220;DHT22;26951;47.338;9.196;2022-09-01T02:50:28;13.20;81.00
41220;DHT22;26951;47.338;9.196;2022-09-01T02:53:16;13.30;80.40
41220;DHT22;26951;47.338;9.196;2022-09-01T02:56:01;13.30;80.20
41220;DHT22;26951;47.338;9.196;2022-09-01T02:58:45;13.40;81.00
41220;DHT22;26951;47.338;9.196;2022-09-01T03:01:31;13.40;80.20
41220;DHT22;26951;47.338;9.196;2022-09-01T03:04:17;13.50;79.50
41220;DHT22;26951;47.338;9.196;2022-09-01T03:07:03;13.40;80.10
41220;DHT22;26951;47.338;9.196;2022-09-01T03:09:48;13.50;80.30
41220;DHT22;26951;47.338;9.196;2022-09-01T03:12:33;13.50;80.00
41220;DHT22;26951;47.338;9.196;2022-09-01T03:15:17;13.50;79.70
41220;DHT22;26951;47.338;9.196;2022-09-01T03:18:03;13.50;79.30
41220;DHT22;26951;47.338;9.196;2022-09-01T03:20:47;13.60;79.60
41220;DHT22;26951;47.338;9.196;2022-09-01T03:23:36;13.50;80.10
41220;DHT22;26951;47.338;9.196;2022-09-01T03:26:21;13.50;79.80
41220;DHT22;26951;47.338;9.196;2022-09-01T03:29:06;13.50;79.70
41220;DHT22;26951;47.338;9.196;2022-09-01T03:31:51;13.40;80.10
41220;DHT22;26951;47.338;9.196;2022-09-01T03:34:35;13.40;80.30
41220;DHT22;26951;47.338;9.196;2022-09-01T03:37:19;13.40;80.80
41220;DHT22;26951;47.338;9.196;2022-09-01T03:40:07;13.40;81.00
41220;DHT22;26951;47.338;9.196;2022-09-01T03:42:52;13.50;80.60
41220;DHT22;26951;47.338;9.196;2022-09-01T03:45:39;13.50;79.40
41220;DHT22;26951;47.338;9.196;2022-09-01T03:48:23;13.50;79.70
41220;DHT22;26951;47.338;9.196;2022-09-01T03:51:09;13.50;79.20
41220;DHT22;26951;47.338;9.196;2022-09-01T03:53:55;13.50;79.10
41220;DHT22;26951;47.338;9.196;2022-09-01T03:56:40;13.50;79.30
41220;DHT22;26951;47.338;9.196;2022-09-01T03:59:25;13.50;79.70
41220;DHT22;26951;47.338;9.196;2022-09-01T04:02:11;13.50;79.80
41220;DHT22;26951;47.338;9.196;2022-09-01T04:04:56;13.50;80.50
41220;DHT22;26951;47.338;9.196;2022-09-01T04:07:41;13.50;80.40
41220;DHT22;26951;47.338;9.196;2022-09-01T04:10:36;13.60;80.20
41220;DHT22;26951;47.338;9.196;2022-09-01T04:13:43;13.60;79.60
41220;DHT22;26951;47.338;9.196;2022-09-01T04:16:29;13.60;79.40
41220;DHT22;26951;47.338;9.196;2022-09-01T04:19:34;13.50;79.60
41220;DHT22;26951;47.338;9.196;2022-09-01T04:22:20;13.60;79.60
41220;DHT22;26951;47.338;9.196;2022-09-01T04:25:06;13.60;79.20
41220;DHT22;26951;47.338;9.196;2022-09-01T04:27:52;13.60;79.10
41220;DHT22;26951;47.338;9.196;2022-09-01T04:30:40;13.60;79.80
41220;DHT22;26951;47.338;9.196;2022-09-01T04:33:26;13.60;79.40
41220;DHT22;26951;47.338;9.196;2022-09-01T04:36:27;13.60;79.50
41220;DHT22;26951;47.338;9.196;2022-09-01T04:39:14;13.60;79.10
41220;DHT22;26951;47.338;9.196;2022-09-01T04:41:58;13.60;78.70
41220;DHT22;26951;47.338;9.196;2022-09-01T04:44:43;13.60;78.60
41220;DHT22;26951;47.338;9.196;2022-09-01T04:47:28;13.60;78.90
41220;DHT22;26951;47.338;9.196;2022-09-01T04:50:15;13.60;78.30
41220;DHT22;26951;47.338;9.196;2022-09-01T04:53:03;13.60;78.00
41220;DHT22;26951;47.338;9.196;2022-09-01T04:55:48;13.60;78.20
41220;DHT22;26951;47.338;9.196;2022-09-01T04:58:33;13.60;78.20
41220;DHT22;26951;47.338;9.196;2022-09-01T05:01:20;13.50;77.90
41220;DHT22;26951;47.338;9.196;2022-09-01T05:04:05;13.50;77.90
41220;DHT22;26951;47.338;9.196;2022-09-01T05:06:52;13.50;77.50
41220;DHT22;26951;47.338;9.196;2022-09-01T05:09:39;13.50;77.50
41220;DHT22;26951;47.338;9.196;2022-09-01T05:12:23;13.50;77.50
41220;DHT22;26951;47.338;9.196;2022-09-01T05:15:07;13.50;77.00
41220;DHT22;26951;47.338;9.196;2022-09-01T05:17:52;13.50;76.60
41220;DHT22;26951;47.338;9.196;2022-09-01T05:20:38;13.50;76.80
41220;DHT22;26951;47.338;9.196;2022-09-01T05:23:24;13.50;76.30
41220;DHT22;26951;47.338;9.196;2022-09-01T05:26:18;13.50;76.80
41220;DHT22;26951;47.338;9.196;2022-09-01T05:29:04;13.50;76.80
41220;DHT22;26951;47.338;9.196;2022-09-01T05:31:54;13.50;76.60
41220;DHT22;26951;47.338;9.196;2022-09-01T05:34:39;13.60;77.60
41220;DHT22;26951;47.338;9.196;2022-09-01T05:37:23;13.60;76.50
41220;DHT22;26951;47.338;9.196;2022-09-01T05:40:11;13.60;75.80
41220;DHT22;26951;47.338;9.196;2022-09-01T05:42:59;13.60;75.40
41220;DHT22;26951;47.338;9.196;2022-09-01T05:45:43;13.50;75.80
41220;DHT22;26951;47.338;9.196;2022-09-01T05:48:28;13.50;76.20
41220;DHT22;26951;47.338;9.196;2022-09-01T05:51:20;13.50;76.70
41220;DHT22;26951;47.338;9.196;2022-09-01T05:54:05;13.50;76.30
41220;DHT22;26951;47.338;9.196;2022-09-01T05:56:54;13.50;76.30
41220;DHT22;26951;47.338;9.196;2022-09-01T05:59:40;13.50;75.90
41220;DHT22;26951;47.338;9.196;2022-09-01T06:02:24;13.50;76.30
41220;DHT22;26951;47.338;9.196;2022-09-01T06:05:09;13.50;76.50
41220;DHT22;26951;47.338;9.196;2022-09-01T06:07:54;13.60;76.60
41220;DHT22;26951;47.338;9.196;2022-09-01T06:10:40;13.60;76.60
41220;DHT22;26951;47.338;9.196;2022-09-01T06:13:24;13.60;76.70
41220;DHT22;26951;47.338;9.196;2022-09-01T06:16:10;13.60;76.10
41220;DHT22;26951;47.338;9.196;2022-09-01T06:18:56;13.60;76.60
41220;DHT22;26951;47.338;9.196;2022-09-01T06:21:42;13.60;76.20
41220;DHT22;26951;47.338;9.196;2022-09-01T06:24:26;13.70;76.30
41220;DHT22;26951;47.338;9.196;2022-09-01T06:27:11;13.70;76.40
41220;DHT22;26951;47.338;9.196;2022-09-01T06:29:55;13.70;76.30
41220;DHT22;26951;47.338;9.196;2022-09-01T06:32:42;13.70;75.80
41220;DHT22;26951;47.338;9.196;2022-09-01T06:35:29;13.70;75.20
41220;DHT22;26951;47.338;9.196;2022-09-01T06:38:15;13.80;74.90
41220;DHT22;26951;47.338;9.196;2022-09-01T06:41:00;13.80;74.90
41220;DHT22;26951;47.338;9.196;2022-09-01T06:43:46;13.80;74.30
41220;DHT22;26951;47.338;9.196;2022-09-01T06:46:32;13.80;74.50
41220;DHT22;26951;47.338;9.196;2022-09-01T06:49:18;13.90;74.30
41220;DHT22;26951;47.338;9.196;2022-09-01T06:52:03;13.90;74.60
41220;DHT22;26951;47.338;9.196;2022-09-01T06:54:47;14.00;73.90
41220;DHT22;26951;47.338;9.196;2022-09-01T06:57:35;14.00;73.30
41220;DHT22;26951;47.338;9.196;2022-09-01T07:00:20;14.00;73.60
41220;DHT22;26951;47.338;9.196;2022-09-01T07:03:12;14.10;73.90
41220;DHT22;26951;47.338;9.196;2022-09-01T07:05:57;14.10;74.00
41220;DHT22;26951;47.338;9.196;2022-09-01T07:08:41;14.20;73.90
41220;DHT22;26951;47.338;9.196;2022-09-01T07:11:33;14.20;74.20
41220;DHT22;26951;47.338;9.196;2022-09-01T07:14:19;14.20;74.40
41220;DHT22;26951;47.338;9.196;2022-09-01T07:17:04;14.30;74.20
41220;DHT22;26951;47.338;9.196;2022-09-01T07:19:50;14.40;74.20
41220;DHT22;26951;47.338;9.196;2022-09-01T07:22:34;14.40;73.50
41220;DHT22;26951;47.338;9.196;2022-09-01T07:25:18;14.40;73.70
41220;DHT22;26951;47.338;9.196;2022-09-01T07:28:04;14.40;74.00
41220;DHT22;26951;47.338;9.196;2022-09-01T07:30:50;14.40;74.40
41220;DHT22;26951;47.338;9.196;2022-09-01T07:33:36;14.40;74.10
41220;DHT22;26951;47.338;9.196;2022-09-01T07:36:20;14.50;74.00
41220;DHT22;26951;47.338;9.196;2022-09-01T07:39:04;14.50;73.60
41220;DHT22;26951;47.338;9.196;2022-09-01T07:41:48;14.60;73.70
41220;DHT22;26951;47.338;9.196;2022-09-01T07:44:32;14.70;74.50
41220;DHT22;26951;47.338;9.196;2022-09-01T07:47:17;14.70;74.50
41220;DHT22;26951;47.338;9.196;2022-09-01T07:50:04;14.80;74.50
41220;DHT22;26951;47.338;9.196;2022-09-01T07:52:49;14.80;73.20
41220;DHT22;26951;47.338;9.196;2022-09-01T07:55:35;14.80;73.00
41220;DHT22;26951;47.338;9.196;2022-09-01T07:58:25;14.90;72.90
41220;DHT22;26951;47.338;9.196;2022-09-01T08:01:16;15.00;72.70
41220;DHT22;26951;47.338;9.196;2022-09-01T08:04:01;15.00;72.60
41220;DHT22;26951;47.338;9.196;2022-09-01T08:06:46;15.10;71.30
41220;DHT22;26951;47.338;9.196;2022-09-01T08:09:30;15.10;71.00
41220;DHT22;26951;47.338;9.196;2022-09-01T08:12:14;15.10;72.00
41220;DHT22;26951;47.338;9.196;2022-09-01T08:15:01;15.10;70.20
41220;DHT22;26951;47.338;9.196;2022-09-01T08:17:46;15.10;70.20
41220;DHT22;26951;47.338;9.196;2022-09-01T08:20:30;15.20;69.50
41220;DHT22;26951;47.338;9.196;2022-09-01T08:23:18;15.30;70.00
41220;DHT22;26951;47.338;9.196;2022-09-01T08:26:07;15.30;69.20
41220;DHT22;26951;47.338;9.196;2022-09-01T08:28:53;15.40;68.40
41220;DHT22;26951;47.338;9.196;2022-09-01T08:31:37;15.50;69.60
41220;DHT22;26951;47.338;9.196;2022-09-01T08:34:21;15.60;70.00
41220;DHT22;26951;47.338;9.196;2022-09-01T08:37:06;15.60;71.00
41220;DHT22;26951;47.338;9.196;2022-09-01T08:39:50;15.70;70.00
41220;DHT22;26951;47.338;9.196;2022-09-01T08:42:43;15.70;69.70
41220;DHT22;26951;47.338;9.196;2022-09-01T08:45:37;15.70;68.90
41220;DHT22;26951;47.338;9.196;2022-09-01T08:48:32;15.70;69.80
41220;DHT22;26951;47.338;9.196;2022-09-01T08:51:36;15.70;68.60
41220;DHT22;26951;47.338;9.196;2022-09-01T08:54:38;15.70;69.40
41220;DHT22;26951;47.338;9.196;2022-09-01T08:57:35;15.80;70.10
41220;DHT22;26951;47.338;9.196;2022-09-01T09:00:24;15.80;69.40
41220;DHT22;26951;47.338;9.196;2022-09-01T09:03:32;15.90;70.00
41220;DHT22;26951;47.338;9.196;2022-09-01T09:06:20;15.90;67.90
41220;DHT22;26951;47.338;9.196;2022-09-01T09:09:08;15.90;67.40
41220;DHT22;26951;47.338;9.196;2022-09-01T09:15:54;16.00;68.40
41220;DHT22;26951;47.338;9.196;2022-09-01T09:18:30;16.10;68.80
41220;DHT22;26951;47.338;9.196;2022-09-01T09:21:22;16.20;68.20
41220;DHT22;26951;47.338;9.196;2022-09-01T09:24:31;16.30;67.70
41220;DHT22;26951;47.338;9.196;2022-09-01T09:27:41;16.30;67.30
41220;DHT22;26951;47.338;9.196;2022-09-01T09:30:27;16.50;68.00
41220;DHT22;26951;47.338;9.196;2022-09-01T09:33:36;16.50;67.90
41220;DHT22;26951;47.338;9.196;2022-09-01T09:36:29;16.60;67.70
41220;DHT22;26951;47.338;9.196;2022-09-01T09:39:16;16.70;67.00
41220;DHT22;26951;47.338;9.196;2022-09-01T09:42:05;16.70;68.00
41220;DHT22;26951;47.338;9.196;2022-09-01T09:44:52;16.70;65.00
41220;DHT22;26951;47.338;9.196;2022-09-01T09:47:44;16.60;65.20
41220;DHT22;26951;47.338;9.196;2022-09-01T09:50:38;16.60;64.80
41220;DHT22;26951;47.338;9.196;2022-09-01T09:53:30;16.60;64.90
41220;DHT22;26951;47.338;9.196;2022-09-01T09:56:22;16.70;66.20
41220;DHT22;26951;47.338;9.196;2022-09-01T09:59:26;16.80;65.40
41220;DHT22;26951;47.338;9.196;2022-09-01T10:05:24;16.90;64.90
41220;DHT22;26951;47.338;9.196;2022-09-01T10:14:26;17.20;64.40
41220;DHT22;26951;47.338;9.196;2022-09-01T10:17:23;17.30;63.40
41220;DHT22;26951;47.338;9.196;2022-09-01T10:20:20;17.40;64.70
41220;DHT22;26951;47.338;9.196;2022-09-01T10:23:05;17.60;65.30
41220;DHT22;26951;47.338;9.196;2022-09-01T10:25:51;17.60;64.20
41220;DHT22;26951;47.338;9.196;2022-09-01T10:28:59;17.70;65.00
41220;DHT22;26951;47.338;9.196;2022-09-01T10:31:44;17.90;65.20
41220;DHT22;26951;47.338;9.196;2022-09-01T10:34:33;18.20;66.30
41220;DHT22;26951;47.338;9.196;2022-09-01T10:37:19;18.60;63.80
41220;DHT22;26951;47.338;9.196;2022-09-01T10:40:35;18.80;61.10
41220;DHT22;26951;47.338;9.196;2022-09-01T10:52:10;19.00;59.90
41220;DHT22;26951;47.338;9.196;2022-09-01T10:54:57;19.10;60.70
41220;DHT22;26951;47.338;9.196;2022-09-01T11:00:49;19.00;58.70
41220;DHT22;26951;47.338;9.196;2022-09-01T11:03:37;19.10;60.20
41220;DHT22;26951;47.338;9.196;2022-09-01T11:10:04;19.10;59.10
41220;DHT22;26951;47.338;9.196;2022-09-01T11:15:43;19.30;58.60
41220;DHT22;26951;47.338;9.196;2022-09-01T11:18:29;19.50;60.00
41220;DHT22;26951;47.338;9.196;2022-09-01T11:21:36;19.60;59.60
41220;DHT22;26951;47.338;9.196;2022-09-01T11:30:36;19.90;58.30
41220;DHT22;26951;47.338;9.196;2022-09-01T11:39:35;19.70;56.20
41220;DHT22;26951;47.338;9.196;2022-09-01T11:42:38;19.70;55.30
41220;DHT22;26951;47.338;9.196;2022-09-01T11:45:26;19.80;59.40
41220;DHT22;26951;47.338;9.196;2022-09-01T11:48:12;20.00;57.60
41220;DHT22;26951;47.338;9.196;2022-09-01T11:50:59;20.10;55.10
41220;DHT22;26951;47.338;9.196;2022-09-01T11:53:44;20.20;55.80
41220;DHT22;26951;47.338;9.196;2022-09-01T11:56:28;20.20;52.80
41220;DHT22;26951;47.338;9.196;2022-09-01T11:59:12;20.20;52.90
41220;DHT22;26951;47.338;9.196;2022-09-01T12:01:57;20.20;53.30
41220;DHT22;26951;47.338;9.196;2022-09-01T12:04:42;20.10;53.10
41220;DHT22;26951;47.338;9.196;2022-09-01T12:07:43;20.00;51.60
41220;DHT22;26951;47.338;9.196;2022-09-01T12:13:21;20.10;53.70
41220;DHT22;26951;47.338;9.196;2022-09-01T12:16:08;20.30;55.40
41220;DHT22;26951;47.338;9.196;2022-09-01T12:18:55;20.50;54.90
41220;DHT22;26951;47.338;9.196;2022-09-01T12:21:42;20.70;55.50
41220;DHT22;26951;47.338;9.196;2022-09-01T12:24:28;20.90;56.40
41220;DHT22;26951;47.338;9.196;2022-09-01T12:27:15;21.10;53.00
41220;DHT22;26951;47.338;9.196;2022-09-01T12:29:59;21.40;51.50
41220;DHT22;26951;47.338;9.196;2022-09-01T12:32:45;21.70;50.90
41220;DHT22;26951;47.338;9.196;2022-09-01T12:35:30;21.90;47.90
41220;DHT22;26951;47.338;9.196;2022-09-01T12:38:23;22.10;46.20
41220;DHT22;26951;47.338;9.196;2022-09-01T12:41:31;22.10;47.80
41220;DHT22;26951;47.338;9.196;2022-09-01T12:44:33;22.20;45.40
41220;DHT22;26951;47.338;9.196;2022-09-01T12:53:15;22.10;46.40
41220;DHT22;26951;47.338;9.196;2022-09-01T12:56:15;22.00;46.60
41220;DHT22;26951;47.338;9.196;2022-09-01T12:59:24;21.90;46.60
41220;DHT22;26951;47.338;9.196;2022-09-01T13:02:34;21.90;48.60
41220;DHT22;26951;47.338;9.196;2022-09-01T13:08:16;22.20;47.90
41220;DHT22;26951;47.338;9.196;2022-09-01T13:11:09;22.30;46.20
41220;DHT22;26951;47.338;9.196;2022-09-01T13:13:54;22.40;46.40
41220;DHT22;26951;47.338;9.196;2022-09-01T13:16:38;22.40;46.30
41220;DHT22;26951;47.338;9.196;2022-09-01T13:19:22;22.50;47.10
41220;DHT22;26951;47.338;9.196;2022-09-01T13:22:06;22.60;45.40
41220;DHT22;26951;47.338;9.196;2022-09-01T13:24:50;22.70;45.40
41220;DHT22;26951;47.338;9.196;2022-09-01T13:27:34;22.70;44.20
41220;DHT22;26951;47.338;9.196;2022-09-01T13:30:23;22.70;44.50
41220;DHT22;26951;47.338;9.196;2022-09-01T13:33:10;22.80;46.20
41220;DHT22;26951;47.338;9.196;2022-09-01T13:35:57;22.80;45.70
41220;DHT22;26951;47.338;9.196;2022-09-01T13:38:41;22.80;45.70
41220;DHT22;26951;47.338;9.196;2022-09-01T13:41:25;22.70;42.10
41220;DHT22;26951;47.338;9.196;2022-09-01T13:44:09;22.60;41.90
41220;DHT22;26951;47.338;9.196;2022-09-01T13:46:54;22.40;44.70
41220;DHT22;26951;47.338;9.196;2022-09-01T13:49:38;22.30;44.10
41220;DHT22;26951;47.338;9.196;2022-09-01T13:52:22;22.20;48.20
41220;DHT22;26951;47.338;9.196;2022-09-01T13:55:09;22.30;44.60
41220;DHT22;26951;47.338;9.196;2022-09-01T13:57:54;22.30;45.50
41220;DHT22;26951;47.338;9.196;2022-09-01T14:00:44;22.40;48.30
41220;DHT22;26951;47.338;9.196;2022-09-01T14:03:29;22.50;47.70
41220;DHT22;26951;47.338;9.196;2022-09-01T14:06:14;22.60;43.90
41220;DHT22;26951;47.338;9.196;2022-09-01T14:08:59;22.70;43.90
41220;DHT22;26951;47.338;9.196;2022-09-01T14:11:43;22.60;42.60
41220;DHT22;26951;47.338;9.196;2022-09-01T14:14:27;22.70;46.60
41220;DHT22;26951;47.338;9.196;2022-09-01T14:17:11;22.80;46.00
41220;DHT22;26951;47.338;9.196;2022-09-01T14:19:55;22.80;43.40
41220;DHT22;26951;47.338;9.196;2022-09-01T14:22:40;22.70;43.60
41220;DHT22;26951;47.338;9.196;2022-09-01T14:25:24;22.60;43.60
41220;DHT22;26951;47.338;9.196;2022-09-01T14:28:09;22.50;45.30
41220;DHT22;26951;47.338;9.196;2022-09-01T14:30:53;22.40;45.50
41220;DHT22;26951;47.338;9.196;2022-09-01T14:33:38;22.40;45.70
41220;DHT22;26951;47.338;9.196;2022-09-01T14:36:24;22.40;48.00
41220;DHT22;26951;47.338;9.196;2022-09-01T14:39:09;22.30;46.30
41220;DHT22;26951;47.338;9.196;2022-09-01T14:41:53;22.40;46.30
41220;DHT22;26951;47.338;9.196;2022-09-01T14:44:37;22.40;46.30
41220;DHT22;26951;47.338;9.196;2022-09-01T14:47:22;22.30;45.50
41220;DHT22;26951;47.338;9.196;2022-09-01T14:50:08;22.30;46.30
41220;DHT22;26951;47.338;9.196;2022-09-01T14:52:55;22.40;47.50
41220;DHT22;26951;47.338;9.196;2022-09-01T14:55:40;22.30;45.90
41220;DHT22;26951;47.338;9.196;2022-09-01T14:58:24;22.40;47.20
41220;DHT22;26951;47.338;9.196;2022-09-01T15:01:09;22.30;45.80
41220;DHT22;26951;47.338;9.196;2022-09-01T15:03:55;22.40;46.40
41220;DHT22;26951;47.338;9.196;2022-09-01T15:06:39;22.40;46.90
41220;DHT22;26951;47.338;9.196;2022-09-01T15:09:23;22.20;44.40
41220;DHT22;26951;47.338;9.196;2022-09-01T15:12:08;22.10;44.00
41220;DHT22;26951;47.338;9.196;2022-09-01T15:14:52;22.00;45.00
41220;DHT22;26951;47.338;9.196;2022-09-01T15:17:36;21.90;45.50
41220;DHT22;26951;47.338;9.196;2022-09-01T15:20:21;21.90;46.30
41220;DHT22;26951;47.338;9.196;2022-09-01T15:23:24;21.90;45.90
41220;DHT22;26951;47.338;9.196;2022-09-01T15:26:08;21.90;47.30
41220;DHT22;26951;47.338;9.196;2022-09-01T15:28:53;21.90;46.00
41220;DHT22;26951;47.338;9.196;2022-09-01T15:31:41;21.80;45.60
41220;DHT22;26951;47.338;9.196;2022-09-01T15:34:27;21.80;46.40
41220;DHT22;26951;47.338;9.196;2022-09-01T15:37:11;21.80;44.70
41220;DHT22;26951;47.338;9.196;2022-09-01T15:39:55;21.70;45.70
41220;DHT22;26951;47.338;9.196;2022-09-01T15:42:39;21.70;46.50
41220;DHT22;26951;47.338;9.196;2022-09-01T15:45:25;21.60;45.10
41220;DHT22;26951;47.338;9.196;2022-09-01T15:48:09;21.60;46.50
41220;DHT22;26951;47.338;9.196;2022-09-01T15:54:16;21.60;46.90
41220;DHT22;26951;47.338;9.196;2022-09-01T15:57:01;21.70;47.00
41220;DHT22;26951;47.338;9.196;2022-09-01T15:59:45;21.70;46.40
41220;DHT22;26951;47.338;9.196;2022-09-01T16:02:30;21.60;46.40
41220;DHT22;26951;47.338;9.196;2022-09-01T16:05:14;21.60;46.70
41220;DHT22;26951;47.338;9.196;2022-09-01T16:08:01;21.50;45.60
41220;DHT22;26951;47.338;9.196;2022-09-01T16:10:47;21.40;46.00
41220;DHT22;26951;47.338;9.196;2022-09-01T16:13:32;21.30;45.70
41220;DHT22;26951;47.338;9.196;2022-09-01T16:23:07;21.00;45.90
41220;DHT22;26951;47.338;9.196;2022-09-01T16:25:53;20.90;46.60
41220;DHT22;26951;47.338;9.196;2022-09-01T16:28:38;20.90;47.10
41220;DHT22;26951;47.338;9.196;2022-09-01T16:31:27;20.80;46.40
41220;DHT22;26951;47.338;9.196;2022-09-01T16:34:14;20.80;47.00
41220;DHT22;26951;47.338;9.196;2022-09-01T16:37:05;20.80;47.00
41220;DHT22;26951;47.338;9.196;2022-09-01T16:40:41;20.80;47.10
41220;DHT22;26951;47.338;9.196;2022-09-01T16:46:33;20.50;46.60
41220;DHT22;26951;47.338;9.196;2022-09-01T16:49:24;20.30;47.00
41220;DHT22;26951;47.338;9.196;2022-09-01T16:52:26;20.20;46.20
41220;DHT22;26951;47.338;9.196;2022-09-01T16:55:26;20.10;47.30
41220;DHT22;26951;47.338;9.196;2022-09-01T17:04:51;19.80;47.20
41220;DHT22;26951;47.338;9.196;2022-09-01T17:07:50;19.60;47.70
41220;DHT22;26951;47.338;9.196;2022-09-01T17:11:08;19.50;48.00
41220;DHT22;26951;47.338;9.196;2022-09-01T17:13:54;19.30;48.00
41220;DHT22;26951;47.338;9.196;2022-09-01T17:16:41;19.20;48.40
41220;DHT22;26951;47.338;9.196;2022-09-01T17:19:27;19.00;48.90
41220;DHT22;26951;47.338;9.196;2022-09-01T17:22:13;18.90;49.30
41220;DHT22;26951;47.338;9.196;2022-09-01T17:25:03;18.80;49.30
41220;DHT22;26951;47.338;9.196;2022-09-01T17:28:03;18.70;49.70
41220;DHT22;26951;47.338;9.196;2022-09-01T17:31:12;18.70;50.10
41220;DHT22;26951;47.338;9.196;2022-09-01T17:34:13;18.50;50.50
41220;DHT22;26951;47.338;9.196;2022-09-01T17:43:26;18.00;51.70
41220;DHT22;26951;47.338;9.196;2022-09-01T17:46:36;17.90;51.80
41220;DHT22;26951;47.338;9.196;2022-09-01T17:49:46;17.80;52.40
41220;DHT22;26951;47.338;9.196;2022-09-01T17:55:55;17.50;53.40
41220;DHT22;26951;47.338;9.196;2022-09-01T17:58:57;17.30;53.20
41220;DHT22;26951;47.338;9.196;2022-09-01T18:05:12;17.00;54.20
41220;DHT22;26951;47.338;9.196;2022-09-01T18:08:07;16.90;54.40
41220;DHT22;26951;47.338;9.196;2022-09-01T18:11:06;16.80;54.60
41220;DHT22;26951;47.338;9.196;2022-09-01T18:13:59;16.60;55.40
41220;DHT22;26951;47.338;9.196;2022-09-01T18:17:00;16.50;55.60
41220;DHT22;26951;47.338;9.196;2022-09-01T18:19:51;16.30;55.90
41220;DHT22;26951;47.338;9.196;2022-09-01T18:22:43;16.20;56.20
41220;DHT22;26951;47.338;9.196;2022-09-01T18:28:21;15.90;56.90
41220;DHT22;26951;47.338;9.196;2022-09-01T18:34:18;15.70;58.60
41220;DHT22;26951;47.338;9.196;2022-09-01T18:37:13;15.60;59.00
41220;DHT22;26951;47.338;9.196;2022-09-01T18:40:20;15.50;58.70
41220;DHT22;26951;47.338;9.196;2022-09-01T18:50:05;15.40;58.90
41220;DHT22;26951;47.338;9.196;2022-09-01T19:00:05;15.10;59.60
41220;DHT22;26951;47.338;9.196;2022-09-01T19:03:12;15.10;59.10
41220;DHT22;26951;47.338;9.196;2022-09-01T19:09:37;15.00;58.40
41220;DHT22;26951;47.338;9.196;2022-09-01T19:12:37;14.90;58.00
41220;DHT22;26951;47.338;9.196;2022-09-01T19:15:35;14.90;58.50
41220;DHT22;26951;47.338;9.196;2022-09-01T19:18:29;14.80;58.20
41220;DHT22;26951;47.338;9.196;2022-09-01T19:21:23;14.70;58.40
41220;DHT22;26951;47.338;9.196;2022-09-01T19:24:34;14.70;58.60
41220;DHT22;26951;47.338;9.196;2022-09-01T19:27:26;14.60;58.70
41220;DHT22;26951;47.338;9.196;2022-09-01T19:30:11;14.60;58.20
41220;DHT22;26951;47.338;9.196;2022-09-01T19:32:57;14.50;57.90
41220;DHT22;26951;47.338;9.196;2022-09-01T19:35:44;14.40;58.70